الصفحة الرئيسية
METAR-TAF:

METAR-TAF

مطار :

مطار سيشل الدولي

فيكتوريا, ماهيه, سيشيل

دائرة عرض: 04-40S, خط طول: 055-31E, ارتفاع: 3 متر

مراقبة الطقس الحالي

تاريخ ووقت الإصدار 1ساعة و 6 دقيقة قبل الساعة 14:00UTC
ريح 9 عقدة من الشمال الغربي
درجة الحرارة 30°درجة مئوية
الرطوبة 75%
ضغط 1008 hPa
الرؤية 10 كم أو أكثر
غيوم قليلة على ارتفاع 2400 قدم

METAR: FSIA 241400Z 32009KT 9999 FEW024 30/25 Q1008 NOSIG

زمن: 19:06 (15:06 UTC)

توقعات

تاريخ ووقت الإصدار 4ساعات و 6 دقيقة قبل الساعة 11:00UTC
التوقعات صالحة من24 الساعة 12 UTC إلى 25 الساعة 12 UTC
ريح 12 عقدة من الشمال
الرؤية 10 كم أو أكثر
غيوم متفرقة على ارتفاع 2600 قدم
نظرية الاحتمالات 40% :
مؤقت
من 24 الساعة 20 UTC إلى 25 الساعة 02 UTC
غيوم قليلة على ارتفاع 1900 قدم, مزنة ركامية.
غيوم مفككة على ارتفاع 2100 قدم
زخات من الأمطار الخفيفة

TAF: FSIA 241100Z 2412/2512 35012KT 9999 SCT026 PROB40 TEMPO 2420/2502 -SHRA FEW019CB BKN021

أرصاد الطقس والتوقعات من أكثر من 4000 مطار (تقارير الطقس للمطار METAR والتنبؤ بالطقس بالمطارTAF).

المحطات المتاحة هي النقط الصفراء والحمراء على الخريطة.

حرك المؤشر فوق النقطة لمعرفة اسم المحطة.

ثم انقر لمعرفة أرصاد وتوقعات الطقس.

لتغيير الخارطة: اضغط على الأزرار الخضراء مع رمز الصليب الأسود للتكبير. على الزر الأخضر مع شرطة للتصغير، أو على الأسهم الخضراء للخرائط المجاورة.


METAR-TAF: